Latest Weather Observations for Banana Bank

IDQ60801

Issued at 2:02 pm EST Thursday 8 December 2016 (issued every 30 minutes, with the page automatically refreshed every 10 minutes)

About weather observations | Map of weather stations | Latest weather observations for QLD | Other Formats
Station Details ID: 040925 Name: BANANA BANK NORTH BEACON Lat: -27.53 Lon: 153.33 Height: 7.0 m
Data from the previous 72 hours. | See also: Recent months for locations in Queensland
Date/Time
EST
Temp
°C
App
Temp
°C
Dew
Point
°C
Rel
Hum
%
Delta-T
°C
Wind Press
QNH
hPa
Press
MSL
hPa
Rain since
9am
mm
Dir  Spd
km/h
Gust
km/h
Spd
kts
Gust
kts
08/02:00pm - - - - - N 24 26 13 14 - - -
08/01:30pm - - - - - N 22 26 12 14 - - -
08/01:00pm - - - - - N 24 28 13 15 - - -
08/12:30pm - - - - - N 22 26 12 14 - - -
08/12:00pm - - - - - N 20 22 11 12 - - -
08/11:30am - - - - - N 19 22 10 12 - - -
08/11:00am - - - - - NNW 17 19 9 10 - - -
08/10:30am - - - - - N 11 15 6 8 - - -
08/10:00am - - - - - NW 2 6 1 3 - - -
08/09:30am - - - - - SSE 6 7 3 4 - - -
08/09:00am - - - - - SE 9 11 5 6 - - -
08/08:30am - - - - - SSE 9 13 5 7 - - -
08/08:00am - - - - - S 9 13 5 7 - - -
08/07:30am - - - - - SE 9 13 5 7 - - -
08/07:00am - - - - - SE 13 15 7 8 - - -
08/06:30am - - - - - SE 13 17 7 9 - - -
08/06:00am - - - - - SE 17 20 9 11 - - -
08/05:30am - - - - - SE 19 20 10 11 - - -
08/05:00am - - - - - SE 17 19 9 10 - - -
08/04:30am - - - - - SE 17 20 9 11 - - -
08/04:00am - - - - - SSE 17 19 9 10 - - -
08/03:30am - - - - - SSE 17 20 9 11 - - -
08/03:00am - - - - - SSE 17 20 9 11 - - -
08/02:30am - - - - - SSE 19 20 10 11 - - -
08/02:00am - - - - - SSE 15 19 8 10 - - -
08/01:30am - - - - - SE 17 20 9 11 - - -
08/01:00am - - - - - SE 17 20 9 11 - - -
08/12:30am - - - - - ESE 15 19 8 10 - - -
08/12:00am - - - - - SE 15 19 8 10 - - -
 
Date/Time
EST
Temp
°C
App
Temp
°C
Dew
Point
°C
Rel
Hum
%
Delta-T
°C
Wind Press
QNH
hPa
Press
MSL
hPa
Rain since
9am
mm
Dir  Spd
km/h
Gust
km/h
Spd
kts
Gust
kts
07/11:30pm - - - - - SSE 19 20 10 11 - - -
07/11:00pm - - - - - SE 17 20 9 11 - - -
07/10:30pm - - - - - SE 17 20 9 11 - - -
07/10:00pm - - - - - SE 11 17 6 9 - - -
07/09:30pm - - - - - SSE 19 24 10 13 - - -
07/09:00pm - - - - - S 26 32 14 17 - - -
07/08:30pm - - - - - SE 22 26 12 14 - - -
07/08:00pm - - - - - SSE 24 30 13 16 - - -
07/07:30pm - - - - - SSE 26 30 14 16 - - -
07/07:00pm - - - - - SSE 20 24 11 13 - - -
07/06:30pm - - - - - NE 7 11 4 6 - - -
07/06:00pm - - - - - NE 11 15 6 8 - - -
07/05:30pm - - - - - NE 13 17 7 9 - - -
07/05:00pm - - - - - NE 15 19 8 10 - - -
07/04:30pm - - - - - NE 17 20 9 11 - - -
07/04:00pm - - - - - NNE 15 17 8 9 - - -
07/03:30pm - - - - - N 19 22 10 12 - - -
07/03:00pm - - - - - N 19 20 10 11 - - -
07/02:30pm - - - - - N 15 19 8 10 - - -
07/02:00pm - - - - - N 20 22 11 12 - - -
07/01:30pm - - - - - N 20 24 11 13 - - -
07/01:00pm - - - - - NNW 24 28 13 15 - - -
07/12:30pm - - - - - NNW 22 24 12 13 - - -
07/12:00pm - - - - - NNW 24 30 13 16 - - -
07/11:30am - - - - - NNW 24 28 13 15 - - -
07/11:00am - - - - - NNW 17 20 9 11 - - -
07/10:30am - - - - - NW 17 19 9 10 - - -
07/10:00am - - - - - NNW 19 22 10 12 - - -
07/09:30am - - - - - N 24 28 13 15 - - -
07/09:00am - - - - - N 24 28 13 15 - - -
07/08:30am - - - - - N 15 20 8 11 - - -
07/08:00am - - - - - N 15 19 8 10 - - -
07/07:30am - - - - - NNE 11 17 6 9 - - -
07/07:00am - - - - - N 13 17 7 9 - - -
07/06:30am - - - - - NNE 9 13 5 7 - - -
07/06:00am - - - - - NE 11 15 6 8 - - -
07/05:30am - - - - - NE 9 11 5 6 - - -
07/05:00am - - - - - N 9 11 5 6 - - -
07/04:30am - - - - - NNW 20 24 11 13 - - -
07/04:00am - - - - - N 15 20 8 11 - - -
07/03:30am - - - - - W 19 24 10 13 - - -
07/03:00am - - - - - W 22 28 12 15 - - -
07/02:30am - - - - - NW 26 32 14 17 - - -
07/02:00am - - - - - NNW 33 41 18 22 - - -
07/01:30am - - - - - N 43 52 23 28 - - -
07/01:00am - - - - - N 44 52 24 28 - - -
07/12:30am - - - - - N 41 46 22 25 - - -
07/12:00am - - - - - N 37 44 20 24 - - -
 
Date/Time
EST
Temp
°C
App
Temp
°C
Dew
Point
°C
Rel
Hum
%
Delta-T
°C
Wind Press
QNH
hPa
Press
MSL
hPa
Rain since
9am
mm
Dir  Spd
km/h
Gust
km/h
Spd
kts
Gust
kts
06/11:30pm - - - - - N 33 41 18 22 - - -
06/11:00pm - - - - - N 37 46 20 25 - - -
06/10:30pm - - - - - N 37 46 20 25 - - -
06/10:00pm - - - - - NNE 26 35 14 19 - - -
06/09:30pm - - - - - NNE 30 43 16 23 - - -
06/09:00pm - - - - - NNE 24 30 13 16 - - -
06/08:30pm - - - - - NNE 26 35 14 19 - - -
06/08:00pm - - - - - NNE 30 39 16 21 - - -
06/07:30pm - - - - - NNE 33 43 18 23 - - -
06/07:00pm - - - - - NNE 35 44 19 24 - - -
06/06:30pm - - - - - NNE 35 44 19 24 - - -
06/06:00pm - - - - - NNE 33 41 18 22 - - -
06/05:30pm - - - - - NNE 33 41 18 22 - - -
06/05:00pm - - - - - NNE 30 35 16 19 - - -
06/04:30pm - - - - - N 33 39 18 21 - - -
06/04:00pm - - - - - N 35 41 19 22 - - -
06/03:30pm - - - - - N 35 43 19 23 - - -
06/03:00pm - - - - - N 35 41 19 22 - - -
06/02:30pm - - - - - N 37 46 20 25 - - -
06/02:00pm - - - - - N 37 44 20 24 - - -
06/01:30pm - - - - - N 35 43 19 23 - - -
06/01:00pm - - - - - N 37 43 20 23 - - -
06/12:30pm - - - - - N 37 43 20 23 - - -
06/12:00pm - - - - - N 41 46 22 25 - - -
06/11:30am - - - - - N 37 44 20 24 - - -
06/11:00am - - - - - N 37 43 20 23 - - -
06/10:30am - - - - - N 35 41 19 22 - - -
06/10:00am - - - - - N 37 43 20 23 - - -
06/09:30am - - - - - N 22 28 12 15 - - -
06/09:00am - - - - - N 26 33 14 18 - - -
06/08:30am - - - - - N 32 39 17 21 - - -
06/08:00am - - - - - NNE 30 39 16 21 - - -
06/07:30am - - - - - NNE 30 37 16 20 - - -
06/07:00am - - - - - NE 26 32 14 17 - - -
06/06:30am - - - - - ENE 32 41 17 22 - - -
06/06:00am - - - - - ENE 33 43 18 23 - - -
06/05:30am - - - - - ESE 26 33 14 18 - - -
06/05:00am - - - - - NE 24 28 13 15 - - -
06/04:30am - - - - - NE 24 30 13 16 - - -
06/04:00am - - - - - NE 26 30 14 16 - - -
06/03:30am - - - - - NE 22 28 12 15 - - -
06/03:00am - - - - - NNE 30 35 16 19 - - -
06/02:30am - - - - - N 37 43 20 23 - - -
06/02:00am - - - - - N 37 43 20 23 - - -
06/01:30am - - - - - N 37 43 20 23 - - -
06/01:00am - - - - - N 44 54 24 29 - - -
06/12:30am - - - - - N 56 63 30 34 - - -
06/12:00am - - - - - N 46 56 25 30 - - -
 
Date/Time
EST
Temp
°C
App
Temp
°C
Dew
Point
°C
Rel
Hum
%
Delta-T
°C
Wind Press
QNH
hPa
Press
MSL
hPa
Rain since
9am
mm
Dir  Spd
km/h
Gust
km/h
Spd
kts
Gust
kts
05/11:30pm - - - - - N 50 61 27 33 - - -
05/11:00pm - - - - - N 46 57 25 31 - - -
05/10:30pm - - - - - N 48 59 26 32 - - -
05/10:00pm - - - - - N 48 57 26 31 - - -
05/09:30pm - - - - - N 48 57 26 31 - - -
05/09:00pm - - - - - N 44 54 24 29 - - -
05/08:30pm - - - - - N 44 54 24 29 - - -
05/08:00pm - - - - - N 46 56 25 30 - - -
05/07:46pm - - - - - N 28 48 15 26 - - -
05/07:30pm - - - - - NNE 22 28 12 15 - - -
05/07:00pm - - - - - NNE 24 28 13 15 - - -
05/06:30pm - - - - - NNE 24 32 13 17 - - -
05/06:00pm - - - - - NNE 30 35 16 19 - - -
05/05:30pm - - - - - NNE 30 39 16 21 - - -
05/05:00pm - - - - - NNE 33 39 18 21 - - -
05/04:30pm - - - - - NNE 33 43 18 23 - - -
05/04:00pm - - - - - NNE 35 43 19 23 - - -
05/03:30pm - - - - - NNE 33 43 18 23 - - -
05/03:00pm - - - - - NNE 32 39 17 21 - - -
05/02:30pm - - - - - NNE 28 35 15 19 - - -

Other Formats:

Comma delimited format used in spreadsheet applications
http://www.bom.gov.au/fwo/IDQ60801/IDQ60801.94591.axf

JavaScript Object Notation format (JSON) in row-major order
http://www.bom.gov.au/fwo/IDQ60801/IDQ60801.94591.json